Thursday, January 18, 2018, 4:05 PM GMT
Back to Local

CYBG, Bagotville, Que.

Location: , , Canada Lat: 48.333
Local Time: 4:05 PM GMT (16:05 GMT) Lon: -71
Time Zone: GMT Elev: 521 ft

Show me the last for .
Show Coded

Time T Td Feel RH Dir Speed Gust Alt SLP Vis Weather Sky Remarks
2018-01-18 15:30 23 14 6 67 320° 21 28 29.75 29.78 2 -SHSN OVC020 None
2018-01-18 15:00 23 16 7 73 270° 16 23 29.74 29.77 15 FEW020 FEW030 BKN050 None
2018-01-18 14:00 21 14 8 73 270° 14 - 29.73 29.76 25 BKN055 None
2018-01-18 13:00 21 14 5 73 250° 15 22 29.71 29.75 25 SCT055 BKN060 None
2018-01-18 12:00 21 14 6 73 260° 15 21 29.71 29.75 15 FEW020 OVC055 None
2018-01-18 11:00 19 14 4 79 250° 13 18 29.71 29.75 7 -SN SCT020 OVC055 None
2018-01-18 10:00 19 12 9 73 240° 8 - 29.71 29.75 10 -SN SCT020 OVC050 None
2018-01-18 09:00 19 12 10 73 240° 7 - 29.73 29.76 10 -SN BKN020 BKN050 OVC080 None
2018-01-18 08:00 16 12 9 85 80° 5 - 29.75 29.79 5 -SN BKN020 OVC050 None
2018-01-18 07:00 18 14 - 85 - Calm - 29.76 29.80 3 -SN BKN020 OVC050 None
2018-01-18 06:00 18 16 8 92 220° 7 - 29.77 29.81 2 -SN BKN020 OVC090 None
2018-01-18 05:00 18 16 8 92 220° 7 - 29.80 29.84 15 -SN BKN020 OVC090 None
2018-01-18 04:00 14 9 6 78 190° 5 - 29.83 29.88 7 -SN OVC020 None
2018-01-18 03:00 12 7 6 78 120° 3 - 29.87 29.92 6 -SN OVC015 None
2018-01-18 02:00 14 9 - 78 - Calm - 29.89 29.94 20 -SN OVC035 None
2018-01-18 01:00 18 12 12 78 160° 3 - 29.92 29.97 25 OVC045 None
2018-01-18 00:00 12 9 6 85 130° 3 - 29.95 30.00 25 FEW035 OVC080 None
2018-01-17 23:00 12 5 4 72 110° 5 - 29.98 30.02 25 BKN035 OVC080 None
2018-01-17 22:00 9 0 0 65 130° 5 - 30.00 30.05 25 SCT035 BKN200 None
2018-01-17 21:00 12 7 4 78 90° 5 - 30.02 30.07 25 SCT035 BKN200 None
2018-01-17 20:00 12 7 4 78 90° 5 - 30.05 30.10 25 BKN035 None
2018-01-17 19:00 10 5 -2 78 90° 9 - 30.06 30.11 25 FEW035 None
2018-01-17 18:00 9 0 0 65 90° 5 - 30.09 30.14 25 FEW035 SCT220 None
2018-01-17 17:00 7 1 -7 77 90° 9 - 30.14 30.19 25 FEW050 None

Support USWX by starting your Amazon purchase here.